Time;durP1;ratioP1;P1;durP2;ratioP2;P2;SDS_P1;SDS_P2;PMS_P1;PMS_P2;Temp;Humidity;BMP_temperature;BMP_pressure;BME280_temperature;BME280_humidity;BME280_pressure;Samples;Min_cycle;Max_cycle;Signal;HPM_P1;HPM_P2
2023/08/09 00:02:00;;;;;;;43.15;25.67;;;13.20;99.90;;;;;;4970836;28;20050;-71
2023/08/09 00:04:26;;;;;;;37.35;22.83;;;13.10;99.90;;;;;;4971065;28;20054;-73
2023/08/09 00:06:53;;;;;;;36.08;24.17;;;13.20;99.90;;;;;;4967742;28;20535;-70
2023/08/09 00:09:21;;;;;;;27.00;19.48;;;13.00;99.90;;;;;;4971224;28;20521;-70
2023/08/09 00:11:47;;;;;;;23.63;17.77;;;12.90;99.90;;;;;;4967820;28;20255;-70
2023/08/09 00:14:14;;;;;;;25.45;17.67;;;12.80;99.90;;;;;;4970912;28;20168;-72
2023/08/09 00:16:41;;;;;;;24.77;16.23;;;12.90;99.90;;;;;;4970326;28;20046;-72
2023/08/09 00:19:09;;;;;;;24.73;15.77;;;12.70;99.90;;;;;;4968947;28;20608;-71
2023/08/09 00:21:36;;;;;;;25.00;17.15;;;12.50;99.90;;;;;;4970544;28;20050;-71
2023/08/09 00:24:04;;;;;;;32.83;19.40;;;12.40;99.90;;;;;;4971035;28;20117;-71
2023/08/09 00:26:31;;;;;;;26.80;17.90;;;12.40;99.90;;;;;;4971273;28;20238;-71
2023/08/09 00:28:57;;;;;;;29.33;18.20;;;12.40;99.90;;;;;;4970703;28;20046;-71
2023/08/09 00:31:24;;;;;;;24.65;16.40;;;12.40;99.90;;;;;;4984982;28;20070;-71
2023/08/09 00:33:51;;;;;;;24.75;15.65;;;12.40;99.90;;;;;;4972592;28;20532;-71
2023/08/09 00:36:18;;;;;;;23.92;15.80;;;12.40;99.90;;;;;;4966407;28;20485;-72
2023/08/09 00:38:45;;;;;;;23.88;15.48;;;12.40;99.90;;;;;;4972383;28;20394;-70
2023/08/09 00:41:12;;;;;;;20.77;14.65;;;12.30;99.90;;;;;;4968014;28;20043;-72
2023/08/09 00:43:39;;;;;;;22.33;14.73;;;12.30;99.90;;;;;;4970374;28;20540;-71
2023/08/09 00:46:06;;;;;;;20.88;14.63;;;12.30;99.90;;;;;;4970700;28;20027;-71
2023/08/09 00:48:34;;;;;;;25.80;16.90;;;12.40;99.90;;;;;;4971705;28;20100;-72
2023/08/09 00:51:00;;;;;;;23.40;14.70;;;12.50;99.90;;;;;;4965314;28;20045;-72
2023/08/09 00:53:27;;;;;;;23.08;15.60;;;12.50;99.90;;;;;;4968534;28;20046;-72
2023/08/09 00:55:55;;;;;;;25.73;15.77;;;12.40;99.90;;;;;;4969857;28;20610;-71
2023/08/09 00:58:22;;;;;;;17.45;13.68;;;12.40;99.90;;;;;;4967031;28;20066;-70
2023/08/09 01:00:49;;;;;;;18.67;13.68;;;12.50;99.90;;;;;;4983648;28;20038;-70
2023/08/09 01:03:16;;;;;;;16.27;11.27;;;12.40;99.90;;;;;;4970928;28;20052;-72
2023/08/09 01:06:02;;;;;;;17.77;11.80;;;12.40;99.90;;;;;;4970251;28;20046;-70
2023/08/09 01:08:48;;;;;;;20.80;12.80;;;12.40;99.90;;;;;;4969534;28;20050;-70
2023/08/09 01:11:26;;;;;;;;;;;12.50;99.90;;;;;;4966530;28;20166;-70
2023/08/09 01:13:54;;;;;;;17.70;11.73;;;12.40;99.90;;;;;;4971551;28;19922;-70
2023/08/09 01:16:23;;;;;;;20.35;13.40;;;12.50;99.90;;;;;;4965565;28;20136;-70
2023/08/09 01:18:52;;;;;;;19.63;12.65;;;12.50;99.90;;;;;;4969139;28;20052;-70
2023/08/09 01:21:21;;;;;;;20.27;12.98;;;12.50;99.90;;;;;;4966192;28;20050;-70
2023/08/09 01:23:49;;;;;;;18.73;13.15;;;12.50;99.90;;;;;;4970147;28;20038;-69
2023/08/09 01:26:15;;;;;;;19.27;12.30;;;12.40;99.90;;;;;;4968823;28;20094;-72
2023/08/09 01:28:42;;;;;;;18.48;12.80;;;12.50;99.90;;;;;;4969000;28;20061;-72
2023/08/09 01:31:10;;;;;;;17.13;14.05;;;12.40;99.90;;;;;;4968719;28;20050;-72
2023/08/09 01:33:37;;;;;;;25.48;13.15;;;12.50;99.90;;;;;;4973167;28;20054;-71
2023/08/09 01:36:33;;;;;;;20.38;12.98;;;12.50;99.90;;;;;;4968052;28;20051;-72
2023/08/09 01:39:11;;;;;;;18.83;12.43;;;12.50;99.90;;;;;;4966122;28;20131;-72
2023/08/09 01:41:38;;;;;;;21.50;13.27;;;12.40;99.90;;;;;;4966759;28;20038;-71
2023/08/09 01:44:07;;;;;;;17.98;13.48;;;12.50;99.90;;;;;;4969599;28;20046;-70
2023/08/09 01:46:34;;;;;;;17.17;12.95;;;12.50;99.90;;;;;;4970351;28;20516;-70
2023/08/09 01:49:13;;;;;;;21.33;14.07;;;12.50;99.90;;;;;;4970317;28;20415;-70
2023/08/09 01:51:40;;;;;;;19.17;14.10;;;12.50;99.90;;;;;;4966211;28;20396;-72
2023/08/09 01:54:08;;;;;;;22.85;15.32;;;12.60;99.90;;;;;;4967709;28;20133;-70
2023/08/09 01:56:35;;;;;;;23.15;16.35;;;12.60;99.90;;;;;;4955152;28;20042;-72
2023/08/09 01:59:05;;;;;;;25.95;16.38;;;12.60;99.90;;;;;;4969133;28;20054;-72
2023/08/09 02:01:32;;;;;;;28.08;17.20;;;12.50;99.90;;;;;;4966282;28;20042;-69
2023/08/09 02:03:58;;;;;;;32.55;18.90;;;12.60;99.90;;;;;;4970635;28;20053;-72
2023/08/09 02:06:26;;;;;;;29.52;19.02;;;12.70;99.90;;;;;;4968051;28;20050;-72
2023/08/09 02:08:53;;;;;;;31.20;20.88;;;12.70;99.90;;;;;;4970270;28;20644;-71
2023/08/09 02:11:20;;;;;;;28.42;19.50;;;12.70;99.90;;;;;;4963268;28;20050;-72
2023/08/09 02:13:47;;;;;;;30.08;19.00;;;12.80;99.90;;;;;;4970379;28;20049;-72
2023/08/09 02:16:14;;;;;;;25.77;18.77;;;12.80;99.90;;;;;;4951703;28;20058;-71
2023/08/09 02:18:41;;;;;;;27.05;18.85;;;12.80;99.90;;;;;;4967998;28;20535;-72
2023/08/09 02:21:08;;;;;;;27.27;18.98;;;12.70;99.90;;;;;;4968616;28;20480;-71
2023/08/09 02:23:34;;;;;;;32.85;19.70;;;12.70;99.90;;;;;;4969913;28;20104;-72
2023/08/09 02:26:01;;;;;;;28.83;19.90;;;12.60;99.90;;;;;;4966352;28;20043;-71
2023/08/09 02:28:28;;;;;;;40.58;23.25;;;12.60;99.90;;;;;;4969429;28;20137;-72
2023/08/09 02:30:56;;;;;;;36.53;25.02;;;12.60;99.90;;;;;;4972929;28;20046;-71
2023/08/09 02:33:23;;;;;;;41.28;24.05;;;12.60;99.90;;;;;;4971670;28;20053;-71
2023/08/09 02:35:57;;;;;;;40.60;23.15;;;12.50;99.90;;;;;;4973697;28;20034;-72
2023/08/09 02:38:26;;;;;;;33.72;23.08;;;12.60;99.90;;;;;;4965466;28;20042;-72
2023/08/09 02:40:53;;;;;;;43.35;24.45;;;12.60;99.90;;;;;;4971915;28;20047;-71
2023/08/09 02:43:24;;;;;;;47.15;23.60;;;12.50;99.90;;;;;;4952670;28;20154;-72
2023/08/09 02:45:52;;;;;;;44.72;24.30;;;12.50;99.90;;;;;;4971170;28;20049;-71
2023/08/09 02:48:19;;;;;;;51.47;25.70;;;12.40;99.90;;;;;;4970234;28;20044;-71
2023/08/09 02:50:46;;;;;;;53.00;26.48;;;12.40;99.90;;;;;;4983708;28;20034;-71
2023/08/09 02:53:15;;;;;;;47.75;25.80;;;12.40;99.90;;;;;;4971165;28;20057;-71
2023/08/09 02:55:42;;;;;;;51.22;26.15;;;12.40;99.90;;;;;;4974473;28;20089;-72
2023/08/09 02:58:09;;;;;;;49.42;25.50;;;12.40;99.90;;;;;;4971440;28;20133;-71
2023/08/09 03:00:36;;;;;;;45.22;24.15;;;12.40;99.90;;;;;;4968134;28;20061;-71
2023/08/09 03:03:04;;;;;;;50.85;26.55;;;12.30;99.90;;;;;;4972324;28;20701;-71
2023/08/09 03:05:32;;;;;;;50.10;25.52;;;12.30;99.90;;;;;;4971415;28;20057;-72
2023/08/09 03:07:59;;;;;;;47.47;24.80;;;12.30;99.90;;;;;;4969801;28;20041;-71
2023/08/09 03:10:26;;;;;;;55.00;25.10;;;12.40;99.90;;;;;;4970013;28;20046;-72
2023/08/09 03:12:53;;;;;;;56.25;26.48;;;12.50;99.90;;;;;;4955606;28;20061;-72
2023/08/09 03:15:21;;;;;;;59.40;27.15;;;12.50;99.90;;;;;;4970622;28;20054;-72
2023/08/09 03:17:48;;;;;;;48.63;25.58;;;12.40;99.90;;;;;;4973326;28;20055;-72
2023/08/09 03:20:16;;;;;;;47.95;25.63;;;12.30;99.90;;;;;;4965009;28;20069;-70
2023/08/09 03:22:48;;;;;;;47.08;24.13;;;12.30;99.90;;;;;;4975616;28;20039;-70
2023/08/09 03:25:16;;;;;;;50.13;23.92;;;12.30;99.90;;;;;;4969784;28;20046;-70
2023/08/09 03:27:46;;;;;;;47.83;25.65;;;12.30;99.90;;;;;;4982595;28;20137;-73
2023/08/09 03:30:14;;;;;;;42.63;24.20;;;12.40;99.90;;;;;;4951844;28;20044;-73
2023/08/09 03:32:41;;;;;;;47.90;25.73;;;12.30;99.90;;;;;;4968922;28;20647;-71
2023/08/09 03:35:09;;;;;;;45.70;24.40;;;12.30;99.90;;;;;;4973513;28;20061;-71
2023/08/09 03:37:36;;;;;;;42.97;24.67;;;12.30;99.90;;;;;;4969666;28;20058;-70
2023/08/09 03:40:09;;;;;;;43.50;24.27;;;12.30;99.90;;;;;;4968106;28;20445;-70
2023/08/09 03:42:36;;;;;;;36.40;23.10;;;12.30;99.90;;;;;;4969370;28;20062;-73
2023/08/09 03:45:03;;;;;;;40.83;23.48;;;12.30;99.90;;;;;;4954118;28;20102;-71
2023/08/09 03:47:30;;;;;;;37.22;22.05;;;12.20;99.90;;;;;;4969993;28;20085;-70
2023/08/09 03:49:56;;;;;;;37.33;21.63;;;12.20;99.90;;;;;;4971420;28;20132;-70
2023/08/09 03:52:24;;;;;;;33.83;21.73;;;12.10;99.90;;;;;;4969400;28;20112;-72
2023/08/09 03:54:52;;;;;;;34.88;22.10;;;12.10;99.90;;;;;;4972224;28;20051;-70
2023/08/09 03:57:19;;;;;;;36.13;21.00;;;12.00;99.90;;;;;;4965576;28;20081;-71
2023/08/09 03:59:46;;;;;;;26.42;18.70;;;12.00;99.90;;;;;;4973635;28;20043;-71
2023/08/09 04:02:13;;;;;;;34.88;20.65;;;11.90;99.90;;;;;;4970045;28;20129;-72
2023/08/09 04:04:41;;;;;;;31.60;21.60;;;11.90;99.90;;;;;;4970776;28;20900;-71
2023/08/09 04:07:08;;;;;;;30.83;21.05;;;11.80;99.90;;;;;;4967290;28;20037;-71
2023/08/09 04:09:35;;;;;;;36.10;22.45;;;11.80;99.90;;;;;;4972354;28;20109;-71
2023/08/09 04:12:03;;;;;;;37.05;23.23;;;11.70;99.90;;;;;;4965786;28;20053;-71
2023/08/09 04:14:30;;;;;;;36.13;22.70;;;11.70;99.90;;;;;;4968986;28;20050;-71
2023/08/09 04:16:56;;;;;;;44.08;24.25;;;11.70;99.90;;;;;;4967014;28;20073;-72
2023/08/09 04:19:26;;;;;;;40.67;24.45;;;11.70;99.90;;;;;;4967287;28;20046;-70
2023/08/09 04:21:53;;;;;;;42.17;24.85;;;11.70;99.90;;;;;;4969693;28;20142;-70
2023/08/09 04:24:21;;;;;;;45.38;25.27;;;11.70;99.90;;;;;;4969356;28;20048;-71
2023/08/09 04:26:47;;;;;;;48.15;26.98;;;11.70;99.90;;;;;;4971639;28;20050;-74
2023/08/09 04:29:14;;;;;;;52.33;28.00;;;11.80;99.90;;;;;;4968900;28;20053;-70
2023/08/09 04:31:41;;;;;;;46.53;26.27;;;11.80;99.90;;;;;;4971354;28;20043;-70
2023/08/09 04:34:08;;;;;;;49.70;26.52;;;11.90;99.90;;;;;;4973169;28;20085;-72
2023/08/09 04:36:35;;;;;;;42.10;25.33;;;11.90;99.90;;;;;;4968640;28;20128;-72
2023/08/09 04:39:06;;;;;;;50.03;27.67;;;12.00;99.90;;;;;;4970774;28;20046;-70
2023/08/09 04:41:32;;;;;;;45.63;27.10;;;12.00;99.90;;;;;;4965845;28;20050;-71
2023/08/09 04:43:59;;;;;;;48.50;26.85;;;12.10;99.90;;;;;;4969658;28;20144;-71
2023/08/09 04:46:29;;;;;;;50.08;27.50;;;12.00;99.90;;;;;;4965179;28;21349;-70
2023/08/09 04:48:56;;;;;;;48.67;26.08;;;12.00;99.90;;;;;;4983489;28;20177;-70
2023/08/09 04:51:23;;;;;;;40.70;23.92;;;12.00;99.90;;;;;;4969090;28;20038;-72
2023/08/09 04:53:50;;;;;;;35.13;22.05;;;12.00;99.90;;;;;;4971588;28;20132;-71
2023/08/09 04:56:17;;;;;;;40.20;23.27;;;11.90;99.90;;;;;;4967920;28;20078;-71
2023/08/09 04:58:43;;;;;;;40.75;23.95;;;11.90;99.90;;;;;;4971846;28;20054;-71
2023/08/09 05:01:10;;;;;;;36.05;22.13;;;11.90;99.90;;;;;;4967229;28;20806;-70
2023/08/09 05:03:37;;;;;;;40.47;23.40;;;11.90;99.90;;;;;;4964411;28;20053;-71
2023/08/09 05:06:04;;;;;;;33.15;22.95;;;12.00;99.90;;;;;;4964446;28;20038;-71
2023/08/09 05:08:30;;;;;;;34.92;21.67;;;12.10;99.90;;;;;;4969115;28;20042;-71
2023/08/09 05:10:57;;;;;;;36.20;21.98;;;12.00;99.90;;;;;;4966878;28;20070;-70
2023/08/09 05:13:25;;;;;;;33.80;22.58;;;12.00;99.90;;;;;;4980270;28;20074;-71
2023/08/09 05:15:52;;;;;;;35.10;21.23;;;12.00;99.90;;;;;;4967016;28;20520;-70
2023/08/09 05:18:19;;;;;;;28.73;20.95;;;12.00;99.90;;;;;;4968063;28;20058;-70
2023/08/09 05:20:45;;;;;;;32.47;20.33;;;12.00;99.90;;;;;;4966227;28;20113;-71
2023/08/09 05:23:12;;;;;;;28.30;19.70;;;12.00;99.90;;;;;;4950424;28;20135;-71
2023/08/09 05:25:40;;;;;;;31.60;19.40;;;12.00;99.90;;;;;;4965519;28;20573;-71
2023/08/09 05:28:06;;;;;;;30.90;19.80;;;12.10;99.90;;;;;;4968128;28;20074;-70
2023/08/09 05:30:33;;;;;;;31.27;21.02;;;12.20;99.90;;;;;;4980361;28;20050;-70
2023/08/09 05:33:00;;;;;;;27.17;19.23;;;12.00;99.90;;;;;;4972209;28;20058;-71
2023/08/09 05:35:27;;;;;;;25.90;18.10;;;12.10;99.90;;;;;;4967740;28;20109;-71
2023/08/09 05:37:54;;;;;;;23.80;17.70;;;12.00;99.90;;;;;;4971075;28;20629;-72
2023/08/09 05:40:21;;;;;;;24.00;15.48;;;12.00;99.90;;;;;;4968208;28;20412;-72
2023/08/09 05:42:48;;;;;;;22.45;15.55;;;11.90;99.90;;;;;;4968507;28;20676;-71
2023/08/09 05:45:14;;;;;;;23.13;16.73;;;12.00;99.90;;;;;;4966708;28;20066;-70
2023/08/09 05:47:41;;;;;;;28.00;16.33;;;12.00;99.90;;;;;;4982874;28;20679;-70
2023/08/09 05:50:08;;;;;;;25.10;16.98;;;12.10;99.90;;;;;;4969076;28;20145;-72
2023/08/09 05:52:35;;;;;;;25.02;17.58;;;12.10;99.90;;;;;;4965642;28;20529;-71
2023/08/09 05:55:05;;;;;;;22.20;16.58;;;12.20;99.90;;;;;;4964530;28;20540;-69
2023/08/09 05:57:31;;;;;;;24.15;16.40;;;12.30;99.90;;;;;;4965576;28;20140;-69
2023/08/09 05:59:58;;;;;;;22.27;17.05;;;12.40;99.90;;;;;;4969745;28;20552;-70
2023/08/09 06:02:25;;;;;;;21.27;15.52;;;12.70;99.90;;;;;;4967659;28;20602;-70
2023/08/09 06:04:52;;;;;;;18.25;13.55;;;12.80;99.90;;;;;;4973132;28;20073;-73
2023/08/09 06:07:19;;;;;;;15.63;12.82;;;12.80;99.90;;;;;;4970322;28;20034;-69
2023/08/09 06:09:45;;;;;;;19.65;12.98;;;12.80;99.90;;;;;;4973669;28;20050;-72
2023/08/09 06:12:12;;;;;;;21.10;13.00;;;12.90;99.90;;;;;;4966191;28;20089;-72
2023/08/09 06:14:39;;;;;;;17.85;13.95;;;12.90;99.90;;;;;;4968616;28;20038;-73
2023/08/09 06:17:06;;;;;;;15.30;12.68;;;12.90;99.90;;;;;;4972696;28;20042;-72
2023/08/09 06:19:33;;;;;;;16.35;13.73;;;12.90;99.90;;;;;;4982310;28;20129;-71
2023/08/09 06:22:00;;;;;;;16.33;14.68;;;12.90;99.90;;;;;;4956383;28;20039;-71
2023/08/09 06:24:27;;;;;;;16.45;14.85;;;12.90;99.90;;;;;;4969610;28;20606;-73
2023/08/09 06:26:54;;;;;;;16.27;14.55;;;13.10;99.90;;;;;;4988046;28;20641;-73
2023/08/09 06:29:21;;;;;;;18.25;16.35;;;13.50;99.90;;;;;;4970919;28;20038;-70
2023/08/09 06:31:48;;;;;;;16.42;14.75;;;13.70;99.90;;;;;;4987964;28;20516;-72
2023/08/09 06:34:15;;;;;;;15.85;14.48;;;13.70;99.90;;;;;;4974783;28;20050;-70
2023/08/09 06:36:42;;;;;;;18.17;16.65;;;13.70;99.90;;;;;;4970186;28;20061;-71
2023/08/09 06:39:09;;;;;;;16.17;14.70;;;13.70;99.90;;;;;;4958642;28;20054;-72
2023/08/09 06:41:36;;;;;;;17.52;16.15;;;14.10;99.90;;;;;;4967520;28;21754;-73
2023/08/09 06:44:03;;;;;;;18.88;17.00;;;14.20;99.90;;;;;;4974868;28;20035;-71
2023/08/09 06:46:29;;;;;;;19.42;17.77;;;14.20;99.90;;;;;;4968593;28;20133;-71
2023/08/09 06:48:56;;;;;;;20.27;18.38;;;14.30;99.90;;;;;;4972045;28;20481;-71
2023/08/09 06:51:23;;;;;;;19.95;18.33;;;14.10;99.90;;;;;;4968000;28;20043;-71
2023/08/09 06:53:50;;;;;;;18.45;16.95;;;14.00;99.90;;;;;;4987941;28;20046;-71
2023/08/09 06:56:16;;;;;;;18.65;17.25;;;13.60;99.90;;;;;;4967922;28;20057;-70
2023/08/09 06:58:43;;;;;;;16.90;15.30;;;13.30;99.90;;;;;;4970664;28;21021;-72
2023/08/09 07:01:10;;;;;;;17.33;15.63;;;13.50;99.90;;;;;;4971739;28;20178;-72
2023/08/09 07:03:37;;;;;;;16.88;15.32;;;14.10;99.90;;;;;;4971705;28;21802;-72
2023/08/09 07:06:04;;;;;;;17.70;16.50;;;14.60;99.90;;;;;;4969812;28;20042;-72
2023/08/09 07:08:31;;;;;;;19.02;17.83;;;14.80;99.90;;;;;;4966615;28;20109;-72
2023/08/09 07:10:58;;;;;;;19.98;18.70;;;14.90;99.90;;;;;;4970160;28;20038;-72
2023/08/09 07:13:25;;;;;;;20.23;18.60;;;14.80;99.90;;;;;;4963811;28;20038;-72
2023/08/09 07:15:52;;;;;;;21.20;19.67;;;14.80;99.90;;;;;;4969442;28;20180;-72
2023/08/09 07:18:19;;;;;;;20.85;19.17;;;14.70;99.90;;;;;;4970352;28;20046;-72
2023/08/09 07:20:46;;;;;;;19.45;18.23;;;14.50;99.90;;;;;;4971782;28;20038;-72
2023/08/09 07:23:12;;;;;;;19.48;18.17;;;14.60;99.90;;;;;;4971429;28;20766;-72
2023/08/09 07:25:44;;;;;;;21.15;19.75;;;15.00;99.90;;;;;;4987478;28;20046;-72
2023/08/09 07:28:11;;;;;;;21.30;19.88;;;15.40;99.90;;;;;;4968875;28;20034;-72
2023/08/09 07:30:38;;;;;;;22.48;20.95;;;15.60;99.90;;;;;;4970362;28;20451;-72
2023/08/09 07:33:05;;;;;;;22.58;20.98;;;15.50;99.90;;;;;;4975037;28;20668;-72
2023/08/09 07:35:32;;;;;;;25.10;23.60;;;15.20;99.90;;;;;;4966059;28;20046;-72
2023/08/09 07:37:59;;;;;;;25.83;24.13;;;15.00;99.90;;;;;;4969837;28;20038;-72
2023/08/09 07:40:26;;;;;;;25.85;24.05;;;15.40;99.90;;;;;;4969098;28;20057;-72
2023/08/09 07:42:53;;;;;;;25.85;24.23;;;15.60;99.90;;;;;;4969743;28;20128;-72
2023/08/09 07:45:19;;;;;;;26.23;24.58;;;15.40;99.90;;;;;;4972200;28;20038;-71
2023/08/09 07:47:49;;;;;;;25.55;24.05;;;15.20;99.90;;;;;;4971200;28;20043;-72
2023/08/09 07:50:15;;;;;;;25.30;23.83;;;14.90;99.90;;;;;;4971389;28;20487;-72
2023/08/09 07:52:43;;;;;;;24.10;22.52;;;14.90;99.90;;;;;;4971497;28;21482;-73
2023/08/09 07:55:09;;;;;;;23.88;22.17;;;15.20;99.90;;;;;;4970289;28;20072;-72
2023/08/09 07:57:36;;;;;;;23.67;22.13;;;15.50;99.90;;;;;;4970533;28;20042;-73
2023/08/09 08:00:17;;;;;;;25.05;23.45;;;15.70;99.90;;;;;;4975930;28;20146;-72
2023/08/09 08:02:45;;;;;;;24.52;23.02;;;15.90;99.90;;;;;;4965770;28;20060;-72
2023/08/09 08:05:15;;;;;;;26.10;24.42;;;16.30;99.90;;;;;;4967752;28;20054;-71
2023/08/09 08:07:43;;;;;;;25.58;23.98;;;16.80;99.90;;;;;;4968552;28;20047;-73
2023/08/09 08:10:14;;;;;;;23.70;22.20;;;16.90;99.90;;;;;;4972669;28;20042;-72
2023/08/09 08:12:43;;;;;;;26.38;24.50;;;16.50;99.90;;;;;;4968763;28;20502;-73
2023/08/09 08:15:09;;;;;;;26.33;24.60;;;16.40;99.90;;;;;;4972026;28;20049;-71
2023/08/09 08:17:36;;;;;;;25.58;23.98;;;16.40;99.90;;;;;;4976471;28;20521;-73
2023/08/09 08:20:07;;;;;;;26.60;24.77;;;16.70;99.90;;;;;;4973396;28;20061;-73
2023/08/09 08:22:37;;;;;;;25.63;24.13;;;16.90;99.90;;;;;;4973038;28;20459;-71
2023/08/09 08:25:04;;;;;;;25.75;24.00;;;16.90;99.90;;;;;;4975381;28;20121;-72
2023/08/09 08:27:35;;;;;;;25.10;23.55;;;16.80;99.90;;;;;;4971039;28;20066;-71
2023/08/09 08:30:05;;;;;;;25.65;24.20;;;17.00;99.90;;;;;;4973412;28;20054;-73
2023/08/09 08:32:32;;;;;;;27.55;25.50;;;17.30;99.90;;;;;;4980178;28;20065;-72
2023/08/09 08:35:02;;;;;;;26.17;24.65;;;17.10;99.90;;;;;;4970553;28;20042;-72
2023/08/09 08:37:29;;;;;;;26.75;25.00;;;17.40;99.90;;;;;;4969691;28;20047;-73
2023/08/09 08:39:55;;;;;;;26.60;24.63;;;17.50;99.90;;;;;;4969407;28;20058;-72
2023/08/09 08:42:22;;;;;;;24.98;23.48;;;17.50;99.90;;;;;;4950911;28;20047;-73
2023/08/09 08:44:49;;;;;;;26.58;24.85;;;17.50;99.90;;;;;;4979368;28;20042;-72
2023/08/09 08:47:16;;;;;;;26.42;24.92;;;17.60;99.90;;;;;;4985535;28;20070;-72
2023/08/09 08:49:48;;;;;;;25.20;23.67;;;17.60;99.90;;;;;;4985193;28;21921;-72
2023/08/09 08:52:16;;;;;;;26.15;24.58;;;17.70;99.90;;;;;;4969777;28;20666;-72
2023/08/09 08:54:43;;;;;;;27.15;25.52;;;17.50;99.90;;;;;;4979428;28;21426;-72
2023/08/09 08:57:11;;;;;;;26.55;24.67;;;17.60;99.90;;;;;;4969236;28;20065;-72
2023/08/09 08:59:39;;;;;;;25.75;24.05;;;17.70;99.90;;;;;;4961670;28;20449;-72
2023/08/09 09:02:06;;;;;;;24.73;23.23;;;17.80;99.90;;;;;;4966920;28;20089;-72
2023/08/09 09:04:42;;;;;;;24.70;23.10;;;17.70;99.90;;;;;;4963861;28;20502;-72
2023/08/09 09:07:10;;;;;;;25.45;23.85;;;17.80;99.90;;;;;;4985795;28;20780;-72
2023/08/09 09:09:59;;;;;;;27.10;25.38;;;17.50;99.90;;;;;;4968417;28;20073;-72
2023/08/09 09:12:26;;;;;;;27.40;25.33;;;16.90;99.90;;;;;;4965040;28;20042;-71
2023/08/09 09:14:53;;;;;;;27.60;25.77;;;17.20;99.90;;;;;;4979383;28;20038;-72
2023/08/09 09:17:21;;;;;;;26.30;24.58;;;17.60;99.90;;;;;;4969223;28;20427;-74
2023/08/09 09:19:48;;;;;;;26.70;24.90;;;17.70;99.90;;;;;;4965855;28;20047;-71
2023/08/09 09:22:27;;;;;;;25.10;23.52;;;17.90;99.90;;;;;;4975004;28;20042;-71
2023/08/09 09:24:58;;;;;;;28.50;26.63;;;18.30;99.90;;;;;;4968496;28;20062;-73
2023/08/09 09:27:33;;;;;;;27.60;25.95;;;18.10;99.90;;;;;;4954871;28;20046;-72
2023/08/09 09:30:12;;;;;;;27.60;25.60;;;18.10;99.90;;;;;;4969547;28;20049;-71
2023/08/09 09:32:54;;;;;;;27.13;25.42;;;18.30;99.90;;;;;;4966960;28;20042;-71
2023/08/09 09:35:22;;;;;;;27.40;25.55;;;18.40;99.90;;;;;;4969011;28;20059;-72
2023/08/09 09:37:51;;;;;;;27.13;25.30;;;18.50;99.90;;;;;;4972184;28;20599;-72
2023/08/09 09:40:32;;;;;;;27.15;25.45;;;18.70;99.90;;;;;;4975290;28;20051;-72
2023/08/09 09:43:04;;;;;;;28.25;26.40;;;19.10;99.90;;;;;;4971717;28;20061;-72
2023/08/09 09:45:31;;;;;;;28.30;26.48;;;19.40;99.90;;;;;;4972909;28;20515;-72
2023/08/09 09:48:02;;;;;;;28.45;26.45;;;19.40;99.90;;;;;;4974654;28;20688;-72
2023/08/09 09:50:31;;;;;;;28.08;26.38;;;19.40;99.90;;;;;;4983676;28;20054;-72
2023/08/09 09:52:59;;;;;;;29.40;27.10;;;19.50;99.90;;;;;;4970900;28;20050;-71
2023/08/09 09:55:28;;;;;;;30.13;28.33;;;19.00;99.90;;;;;;4984379;28;20143;-72
2023/08/09 09:57:56;;;;;;;31.02;29.13;;;19.10;99.90;;;;;;4984279;28;20066;-73
2023/08/09 10:00:27;;;;;;;29.92;27.83;;;19.30;99.90;;;;;;4972189;28;20518;-72
2023/08/09 10:02:55;;;;;;;29.70;27.73;;;19.30;99.90;;;;;;4988498;28;20046;-72
2023/08/09 10:05:29;;;;;;;26.75;25.00;;;19.60;99.90;;;;;;4971477;28;20551;-72
2023/08/09 10:07:57;;;;;;;30.20;28.30;;;19.50;99.90;;;;;;4973926;28;20047;-71
2023/08/09 10:10:27;;;;;;;29.30;27.20;;;19.60;99.90;;;;;;4973172;28;20046;-71
2023/08/09 10:12:55;;;;;;;29.83;27.73;;;19.70;99.90;;;;;;4973101;28;20065;-72
2023/08/09 10:15:27;;;;;;;30.33;28.15;;;19.90;99.90;;;;;;4972366;28;20608;-72
2023/08/09 10:18:04;;;;;;;30.60;28.67;;;19.90;99.90;;;;;;4970038;28;20057;-72
2023/08/09 10:20:32;;;;;;;27.70;26.00;;;19.80;99.90;;;;;;4968848;28;20057;-72
2023/08/09 10:22:58;;;;;;;29.55;27.70;;;19.50;99.90;;;;;;4967712;28;20074;-72
2023/08/09 10:25:43;;;;;;;29.30;27.20;;;19.40;99.90;;;;;;4970327;28;20502;-72
2023/08/09 10:28:10;;;;;;;29.58;27.48;;;19.40;99.90;;;;;;4988911;28;20053;-72
2023/08/09 10:30:54;;;;;;;26.80;25.20;;;19.60;99.90;;;;;;4971521;28;20062;-72
2023/08/09 10:33:21;;;;;;;25.58;23.90;;;19.60;99.90;;;;;;4972430;28;20129;-72
2023/08/09 10:35:50;;;;;;;28.83;26.92;;;19.50;99.90;;;;;;4967380;28;20046;-72
2023/08/09 10:38:32;;;;;;;29.20;27.13;;;19.20;99.90;;;;;;4976541;28;20055;-72
2023/08/09 10:41:12;;;;;;;28.20;26.50;;;19.50;99.90;;;;;;4963065;28;20054;-72
2023/08/09 10:43:39;;;;;;;27.52;25.92;;;19.60;99.90;;;;;;4962935;28;20043;-73
2023/08/09 10:46:20;;;;;;;28.42;26.77;;;19.70;99.90;;;;;;4970408;28;20046;-72
2023/08/09 10:48:51;;;;;;;29.30;27.63;;;19.90;99.90;;;;;;4967701;28;20054;-72
2023/08/09 10:51:23;;;;;;;27.67;25.88;;;19.90;99.90;;;;;;4984684;28;20042;-72
2023/08/09 10:54:03;;;;;;;29.70;27.90;;;20.10;99.90;;;;;;4967920;28;21510;-72
2023/08/09 10:56:58;;;;;;;27.63;25.92;;;20.20;99.90;;;;;;4967325;28;20058;-72
2023/08/09 10:59:25;;;;;;;29.50;27.70;;;20.30;99.90;;;;;;4968208;28;20054;-71
2023/08/09 11:01:54;;;;;;;29.30;27.15;;;19.80;99.90;;;;;;4964717;28;20157;-72
2023/08/09 11:04:21;;;;;;;28.40;26.55;;;20.10;99.90;;;;;;4970666;28;20085;-76
2023/08/09 11:06:49;;;;;;;29.33;27.40;;;20.60;99.90;;;;;;4983226;28;20042;-73
2023/08/09 11:09:21;;;;;;;30.02;28.23;;;20.90;99.90;;;;;;4973620;28;20444;-73
2023/08/09 11:11:50;;;;;;;29.83;27.92;;;21.00;99.90;;;;;;4963405;28;20041;-73
2023/08/09 11:14:19;;;;;;;31.05;29.15;;;20.70;99.90;;;;;;4975438;28;20046;-73
2023/08/09 11:16:47;;;;;;;29.75;27.80;;;20.70;99.90;;;;;;4969506;28;20042;-71
2023/08/09 11:19:16;;;;;;;25.85;24.25;;;20.80;99.90;;;;;;4969420;28;20631;-71
2023/08/09 11:22:00;;;;;;;30.17;28.35;;;20.90;99.90;;;;;;4971087;28;20148;-73
2023/08/09 11:24:29;;;;;;;30.70;28.90;;;20.60;99.90;;;;;;4969436;28;20057;-73
2023/08/09 11:26:58;;;;;;;29.35;27.58;;;20.20;99.90;;;;;;4965450;28;20130;-73
2023/08/09 11:29:26;;;;;;;29.02;27.23;;;20.10;99.90;;;;;;4951626;28;20136;-72
2023/08/09 11:31:56;;;;;;;32.10;30.20;;;19.50;99.90;;;;;;4965334;28;20042;-74
2023/08/09 11:34:24;;;;;;;31.40;29.58;;;19.40;99.90;;;;;;4971646;28;20050;-73
2023/08/09 11:36:54;;;;;;;30.77;28.77;;;19.80;99.90;;;;;;4963309;28;20116;-73
2023/08/09 11:39:24;;;;;;;31.77;29.77;;;20.00;99.90;;;;;;4960917;28;20081;-73
2023/08/09 11:41:51;;;;;;;31.85;29.95;;;20.30;99.90;;;;;;4967681;28;20114;-73
2023/08/09 11:44:26;;;;;;;25.98;24.38;;;20.40;99.90;;;;;;4971344;28;20050;-72
2023/08/09 11:46:54;;;;;;;27.52;25.85;;;20.50;99.90;;;;;;4965917;28;20042;-72
2023/08/09 11:49:28;;;;;;;32.80;30.70;;;20.60;99.90;;;;;;4970427;28;20046;-74
2023/08/09 11:51:56;;;;;;;28.63;26.77;;;20.40;99.90;;;;;;4969114;28;20054;-73
2023/08/09 11:54:23;;;;;;;28.23;26.30;;;20.30;99.90;;;;;;4982779;28;20788;-73
2023/08/09 11:56:51;;;;;;;30.33;28.42;;;20.20;99.90;;;;;;4984023;28;20120;-73
2023/08/09 11:59:19;;;;;;;28.95;27.25;;;20.20;99.90;;;;;;4984885;28;20117;-73
2023/08/09 12:01:49;;;;;;;32.78;30.88;;;20.40;99.90;;;;;;4983791;28;20925;-74
2023/08/09 12:04:20;;;;;;;32.33;30.42;;;20.20;99.90;;;;;;4971193;28;20066;-74
2023/08/09 12:06:51;;;;;;;29.80;28.00;;;20.20;99.90;;;;;;4972663;28;21173;-74
2023/08/09 12:09:31;;;;;;;29.48;27.80;;;20.10;99.90;;;;;;4974686;28;20061;-75
2023/08/09 12:12:13;;;;;;;29.52;27.75;;;19.90;99.90;;;;;;4971742;28;20053;-74
2023/08/09 12:14:40;;;;;;;50.70;26.85;;;19.70;99.90;;;;;;4987352;28;20564;-73
2023/08/09 12:17:08;;;;;;;27.45;25.75;;;19.80;99.90;;;;;;4980197;28;20097;-73
2023/08/09 12:19:38;;;;;;;28.40;26.10;;;19.90;99.90;;;;;;4974149;28;20046;-74
2023/08/09 12:22:08;;;;;;;32.50;30.48;;;19.90;99.90;;;;;;4975410;28;20118;-75
2023/08/09 12:24:35;;;;;;;44.67;33.97;;;20.00;99.90;;;;;;4973862;28;20755;-75
2023/08/09 12:27:02;;;;;;;33.13;31.08;;;20.50;99.90;;;;;;4973415;28;20528;-75
2023/08/09 12:29:30;;;;;;;32.92;30.60;;;21.00;99.90;;;;;;4976875;28;20050;-75
2023/08/09 12:31:59;;;;;;;33.53;31.45;;;21.40;99.90;;;;;;4973757;28;20062;-74
2023/08/09 12:34:26;;;;;;;33.58;31.58;;;21.20;99.90;;;;;;4977842;28;20061;-74
2023/08/09 12:37:46;;;;;;;27.08;25.27;;;21.00;99.90;;;;;;4961225;28;20108;-77